createdAt,value
2022-08-05T00:00:50.760Z,4.0
2022-08-05T00:02:52.167Z,4.0
2022-08-05T00:04:56.221Z,4.2
2022-08-05T00:06:52.051Z,3.8
2022-08-05T00:08:53.097Z,3.9
2022-08-05T00:10:50.108Z,3.9
2022-08-05T00:12:57.117Z,4.0
2022-08-05T00:14:52.048Z,4.6
2022-08-05T00:16:54.005Z,4.1
2022-08-05T00:18:50.671Z,4.1
2022-08-05T00:20:50.655Z,4.4
2022-08-05T00:23:02.298Z,4.0
2022-08-05T00:24:55.391Z,3.7
2022-08-05T00:26:52.892Z,3.7
2022-08-05T00:28:50.491Z,3.8
2022-08-05T00:30:53.771Z,3.6
2022-08-05T00:32:50.136Z,4.1
2022-08-05T00:35:04.969Z,4.2
2022-08-05T00:37:09.290Z,4.3
2022-08-05T00:38:50.330Z,4.3
2022-08-05T00:40:53.545Z,3.5
2022-08-05T00:42:50.175Z,4.0
2022-08-05T00:44:51.555Z,3.9
2022-08-05T00:47:01.772Z,4.0
2022-08-05T00:48:51.623Z,4.0
2022-08-05T00:50:51.475Z,3.8
2022-08-05T00:52:53.574Z,4.2
2022-08-05T00:54:50.831Z,4.2
2022-08-05T00:56:51.959Z,4.0
2022-08-05T00:58:49.894Z,4.0
2022-08-05T01:00:50.502Z,4.0
2022-08-05T01:02:50.367Z,3.8
2022-08-05T01:04:51.130Z,3.8
2022-08-05T01:06:52.492Z,4.1
2022-08-05T01:08:50.536Z,4.1
2022-08-05T01:10:52.923Z,4.0
2022-08-05T01:13:05.133Z,4.1
2022-08-05T01:14:50.353Z,3.8
2022-08-05T01:16:52.466Z,3.8
2022-08-05T01:18:56.771Z,3.8
2022-08-05T01:20:50.031Z,4.1
2022-08-05T01:22:50.132Z,4.1
2022-08-05T01:24:50.281Z,4.2
2022-08-05T01:26:51.157Z,4.2
2022-08-05T01:28:49.885Z,3.6
2022-08-05T01:30:55.547Z,3.8
2022-08-05T01:32:49.657Z,3.9
2022-08-05T01:34:50.785Z,4.0
2022-08-05T01:36:51.053Z,4.0
2022-08-05T01:38:51.099Z,3.7
2022-08-05T01:40:51.535Z,4.0
2022-08-05T01:42:50.586Z,4.0
2022-08-05T01:44:54.880Z,4.2
2022-08-05T01:46:52.296Z,4.2
2022-08-05T01:48:50.331Z,4.0
2022-08-05T01:50:51.534Z,3.7
2022-08-05T01:52:50.600Z,3.8
2022-08-05T01:54:52.996Z,3.9
2022-08-05T01:58:09.089Z,3.9
2022-08-05T01:58:50.603Z,4.0
2022-08-05T02:00:50.169Z,3.7
2022-08-05T02:02:55.360Z,3.7
2022-08-05T02:04:51.024Z,3.9
2022-08-05T02:06:50.442Z,3.9
2022-08-05T02:08:59.319Z,3.9
2022-08-05T02:10:53.546Z,3.8
2022-08-05T02:12:51.226Z,3.7
2022-08-05T02:14:50.138Z,3.7
2022-08-05T02:16:53.218Z,4.1
2022-08-05T02:18:50.467Z,4.0
2022-08-05T02:20:50.829Z,4.0
2022-08-05T02:22:49.893Z,4.0
2022-08-05T02:24:52.325Z,4.0
2022-08-05T02:26:54.988Z,4.1
2022-08-05T02:28:50.690Z,4.2
2022-08-05T02:30:54.897Z,4.0
2022-08-05T02:32:49.987Z,4.0
2022-08-05T02:34:55.308Z,4.3
2022-08-05T02:36:49.713Z,4.3
2022-08-05T02:38:53.955Z,4.4
2022-08-05T02:40:50.356Z,4.1
2022-08-05T02:42:54.301Z,4.1
2022-08-05T02:44:51.842Z,4.1
2022-08-05T02:47:00.824Z,4.0
2022-08-05T02:48:52.198Z,4.5
2022-08-05T02:50:50.695Z,4.5
2022-08-05T02:52:49.819Z,4.1
2022-08-05T02:54:52.386Z,4.0
2022-08-05T02:56:49.929Z,4.1
2022-08-05T02:58:52.787Z,4.2
2022-08-05T03:00:49.817Z,4.2
2022-08-05T03:02:50.590Z,4.0
2022-08-05T03:04:53.486Z,4.0
2022-08-05T03:06:59.303Z,3.8
2022-08-05T03:08:52.474Z,4.3
2022-08-05T03:11:41.255Z,4.3
2022-08-05T03:12:52.134Z,3.9
2022-08-05T03:14:50.102Z,4.1
2022-08-05T03:16:53.590Z,4.4
2022-08-05T03:18:49.652Z,4.4
2022-08-05T03:20:50.508Z,4.2
2022-08-05T03:22:50.791Z,4.2
2022-08-05T03:24:52.181Z,4.1
2022-08-05T03:26:49.760Z,4.1
2022-08-05T03:28:51.821Z,4.1
2022-08-05T03:30:51.141Z,4.6
2022-08-05T03:32:50.370Z,4.6
2022-08-05T03:34:51.652Z,4.2
2022-08-05T03:36:52.473Z,4.3
2022-08-05T03:38:53.551Z,4.2
2022-08-05T03:40:50.210Z,4.3
2022-08-05T03:42:52.856Z,4.3
2022-08-05T03:44:51.956Z,4.1
2022-08-05T03:46:49.877Z,4.3
2022-08-05T03:48:51.139Z,4.3
2022-08-05T03:50:49.803Z,4.0
2022-08-05T03:55:00.893Z,4.2
2022-08-05T03:55:54.902Z,4.1
2022-08-05T03:56:50.258Z,4.3
2022-08-05T03:58:51.381Z,4.3
2022-08-05T04:00:51.746Z,4.3
2022-08-05T04:02:59.135Z,4.3
2022-08-05T04:04:49.803Z,4.3
2022-08-05T04:06:51.935Z,4.4
2022-08-05T04:08:50.163Z,4.2
2022-08-05T04:10:50.237Z,4.2
2022-08-05T04:12:50.094Z,4.1
2022-08-05T04:14:50.108Z,4.1
2022-08-05T04:16:53.227Z,4.1
2022-08-05T04:18:57.848Z,4.2
2022-08-05T04:20:50.258Z,4.2
2022-08-05T04:22:50.666Z,4.4
2022-08-05T04:24:53.193Z,4.2
2022-08-05T04:26:50.104Z,4.3
2022-08-05T04:28:52.223Z,4.2
2022-08-05T04:30:51.373Z,4.2
2022-08-05T04:32:49.909Z,4.5
2022-08-05T04:34:57.711Z,4.3
2022-08-05T04:36:50.652Z,4.2
2022-08-05T04:38:52.168Z,4.2
2022-08-05T04:40:51.074Z,4.5
2022-08-05T04:42:49.984Z,4.1
2022-08-05T04:44:50.768Z,4.4
2022-08-05T04:46:49.870Z,4.9
2022-08-05T04:48:51.842Z,4.9
2022-08-05T04:51:02.169Z,4.4
2022-08-05T04:52:50.604Z,4.3
2022-08-05T04:54:50.584Z,4.7
2022-08-05T04:56:56.288Z,4.7
2022-08-05T04:58:49.752Z,4.7
2022-08-05T05:00:51.038Z,4.2
2022-08-05T05:02:50.558Z,4.4
2022-08-05T05:04:51.620Z,4.7
2022-08-05T05:06:57.861Z,4.3
2022-08-05T05:08:50.327Z,4.3
2022-08-05T05:10:56.761Z,4.4
2022-08-05T05:12:50.767Z,4.4
2022-08-05T05:14:51.530Z,4.4
2022-08-05T05:16:50.730Z,4.4
2022-08-05T05:19:17.968Z,4.2
2022-08-05T05:20:50.606Z,4.5
2022-08-05T05:22:50.526Z,4.2
2022-08-05T05:25:00.079Z,4.2
2022-08-05T05:26:52.588Z,4.2
2022-08-05T05:28:49.767Z,4.2
2022-08-05T05:30:50.123Z,4.1
2022-08-05T05:32:50.499Z,4.0
2022-08-05T05:34:52.618Z,3.9
2022-08-05T05:36:51.381Z,3.9
2022-08-05T05:38:49.754Z,4.2
2022-08-05T05:40:52.042Z,4.1
2022-08-05T05:42:50.029Z,4.1
2022-08-05T05:44:49.906Z,4.1
2022-08-05T05:46:51.276Z,4.1
2022-08-05T05:48:50.850Z,4.0
2022-08-05T05:50:50.431Z,3.8
2022-08-05T05:52:50.668Z,3.8
2022-08-05T05:54:51.438Z,3.9
2022-08-05T05:56:50.171Z,3.9
2022-08-05T05:58:50.425Z,3.9
2022-08-05T06:00:50.273Z,4.2
2022-08-05T06:02:50.192Z,4.1
2022-08-05T06:04:50.606Z,3.7
2022-08-05T06:06:50.415Z,3.7
2022-08-05T06:08:50.525Z,3.8
2022-08-05T06:10:53.075Z,3.9
2022-08-05T06:12:50.104Z,3.8
2022-08-05T06:14:51.922Z,4.0
2022-08-05T06:16:50.535Z,4.0
2022-08-05T06:18:53.783Z,3.6
2022-08-05T06:20:54.368Z,3.3
2022-08-05T06:22:50.563Z,4.3
2022-08-05T06:24:50.877Z,4.8
2022-08-05T06:26:53.369Z,4.8
2022-08-05T06:28:50.283Z,4.8
2022-08-05T06:30:50.037Z,4.8
2022-08-05T06:32:51.014Z,5.0
2022-08-05T06:34:56.469Z,5.0
2022-08-05T06:36:58.817Z,7.2
2022-08-05T06:38:49.886Z,4.3
2022-08-05T06:40:49.785Z,3.3
2022-08-05T06:42:52.706Z,3.3
2022-08-05T06:44:50.884Z,3.3
2022-08-05T06:46:51.241Z,3.3
2022-08-05T06:48:59.980Z,3.2
2022-08-05T06:50:50.479Z,3.2
2022-08-05T06:53:04.126Z,3.2
2022-08-05T06:54:53.475Z,3.1
2022-08-05T06:57:13.800Z,3.4
2022-08-05T06:58:49.700Z,3.2
2022-08-05T07:00:50.215Z,3.2
2022-08-05T07:02:54.266Z,3.4
2022-08-05T07:04:50.803Z,3.2
2022-08-05T07:06:50.663Z,2.8
2022-08-05T07:08:55.257Z,3.2
2022-08-05T07:10:53.878Z,3.2
2022-08-05T07:12:51.802Z,3.2
2022-08-05T07:14:54.183Z,3.2
2022-08-05T07:17:57.826Z,2.9
2022-08-05T07:18:51.650Z,2.8
2022-08-05T07:20:50.194Z,2.7
2022-08-05T07:22:51.364Z,2.7
2022-08-05T07:24:53.838Z,2.8
2022-08-05T07:26:49.983Z,3.0
2022-08-05T07:28:50.921Z,2.7
2022-08-05T07:30:55.030Z,2.7
2022-08-05T07:32:53.607Z,2.6
2022-08-05T07:34:58.066Z,2.5
2022-08-05T07:36:51.451Z,2.9
2022-08-05T07:38:55.184Z,2.9
2022-08-05T07:41:02.890Z,2.4
2022-08-05T07:42:50.157Z,2.4
2022-08-05T07:44:50.053Z,2.9
2022-08-05T07:46:50.682Z,2.6
2022-08-05T07:49:01.106Z,2.5
2022-08-05T07:50:49.801Z,2.5
2022-08-05T07:52:50.950Z,2.5
2022-08-05T07:54:50.157Z,2.5
2022-08-05T07:57:14.899Z,2.3
2022-08-05T07:58:59.514Z,2.4
2022-08-05T08:00:50.816Z,2.4
2022-08-05T08:03:14.404Z,2.7
2022-08-05T08:04:50.076Z,3.9
2022-08-05T08:06:51.386Z,2.6
2022-08-05T08:08:50.883Z,2.6
2022-08-05T08:10:51.031Z,2.5
2022-08-05T08:12:50.201Z,2.4
2022-08-05T08:14:49.975Z,2.6
2022-08-05T08:16:53.728Z,2.5
2022-08-05T08:18:50.718Z,2.3
2022-08-05T08:21:03.273Z,2.3
2022-08-05T08:22:50.638Z,2.4
2022-08-05T08:24:52.194Z,3.3
2022-08-05T08:26:52.478Z,2.3
2022-08-05T08:29:02.486Z,2.3
2022-08-05T08:30:50.704Z,2.6
2022-08-05T08:32:51.273Z,2.6
2022-08-05T08:34:50.521Z,2.5
2022-08-05T08:36:58.985Z,2.3
2022-08-05T08:38:53.659Z,2.3
2022-08-05T08:40:51.909Z,2.4
2022-08-05T08:42:52.981Z,2.9
2022-08-05T08:45:21.787Z,2.4
2022-08-05T08:46:50.154Z,2.9
2022-08-05T08:49:08.186Z,2.9
2022-08-05T08:51:04.253Z,2.5
2022-08-05T08:52:53.269Z,2.4
2022-08-05T08:54:50.335Z,2.4
2022-08-05T08:56:50.542Z,2.4
2022-08-05T08:58:50.759Z,2.3
2022-08-05T09:00:51.677Z,2.4
2022-08-05T09:02:49.887Z,2.2
2022-08-05T09:05:17.141Z,2.4
2022-08-05T09:06:50.842Z,2.4
2022-08-05T09:08:49.978Z,2.4
2022-08-05T09:10:50.966Z,3.1
2022-08-05T09:12:53.273Z,2.7
2022-08-05T09:15:05.893Z,2.7
2022-08-05T09:16:49.867Z,3.6
2022-08-05T09:18:50.567Z,3.6
2022-08-05T09:20:51.275Z,2.7
2022-08-05T09:22:52.099Z,3.2
2022-08-05T09:24:50.241Z,3.2
2022-08-05T09:26:52.089Z,2.3
2022-08-05T09:28:50.037Z,2.3
2022-08-05T09:30:49.967Z,2.1
2022-08-05T09:32:52.817Z,1.8
2022-08-05T09:34:50.948Z,1.8
2022-08-05T09:36:59.284Z,1.8
2022-08-05T09:38:50.183Z,1.8
2022-08-05T09:40:53.944Z,1.6
2022-08-05T09:42:54.051Z,1.9
2022-08-05T09:44:50.809Z,1.8
2022-08-05T09:46:58.218Z,1.8
2022-08-05T09:49:07.415Z,1.8
2022-08-05T09:50:49.857Z,1.6
2022-08-05T09:52:53.185Z,1.4
2022-08-05T09:54:50.811Z,1.4
2022-08-05T09:56:52.632Z,1.6
2022-08-05T09:58:50.514Z,2.2
2022-08-05T10:00:50.376Z,1.6
2022-08-05T10:02:50.496Z,1.6
2022-08-05T10:04:50.262Z,1.5
2022-08-05T10:07:01.446Z,1.5
2022-08-05T10:08:55.566Z,1.8
2022-08-05T10:10:54.956Z,1.6
2022-08-05T10:12:50.654Z,1.6
2022-08-05T10:14:54.569Z,1.6
2022-08-05T10:16:53.470Z,1.5
2022-08-05T10:18:51.590Z,1.7
2022-08-05T10:20:50.639Z,1.6
2022-08-05T10:22:51.439Z,1.5
2022-08-05T10:24:50.756Z,1.5
2022-08-05T10:26:52.724Z,1.6
2022-08-05T10:28:50.533Z,1.4
2022-08-05T10:31:20.553Z,1.4
2022-08-05T10:33:02.723Z,1.5
2022-08-05T10:34:50.493Z,1.5
2022-08-05T10:36:50.266Z,1.6
2022-08-05T10:38:50.715Z,1.7
2022-08-05T10:40:50.917Z,1.7
2022-08-05T10:42:49.715Z,1.7
2022-08-05T10:44:49.676Z,1.5
2022-08-05T10:46:54.170Z,1.4
2022-08-05T10:48:59.051Z,1.6
2022-08-05T10:50:51.251Z,1.6
2022-08-05T10:52:50.235Z,1.6
2022-08-05T10:54:57.314Z,1.6
2022-08-05T10:56:53.323Z,1.4
2022-08-05T10:58:50.872Z,1.4
2022-08-05T11:01:00.651Z,1.6
2022-08-05T11:02:50.759Z,1.4
2022-08-05T11:04:51.843Z,1.4
2022-08-05T11:06:49.869Z,1.4
2022-08-05T11:08:51.300Z,1.4
2022-08-05T11:11:02.226Z,1.5
2022-08-05T11:12:55.590Z,1.5
2022-08-05T11:15:01.646Z,1.4
2022-08-05T11:17:01.157Z,1.5
2022-08-05T11:18:51.859Z,1.6
2022-08-05T11:20:50.255Z,1.5
2022-08-05T11:22:56.966Z,1.5
2022-08-05T11:25:16.756Z,1.7
2022-08-05T11:26:50.071Z,1.4
2022-08-05T11:28:49.841Z,1.5
2022-08-05T11:30:54.786Z,1.5
2022-08-05T11:32:49.918Z,1.5
2022-08-05T11:34:54.562Z,1.5
2022-08-05T11:36:53.214Z,1.5
2022-08-05T11:38:52.431Z,1.6
2022-08-05T11:40:50.015Z,1.6
2022-08-05T11:42:50.138Z,1.5
2022-08-05T11:44:54.460Z,1.5
2022-08-05T11:47:10.033Z,1.7
2022-08-05T11:48:51.156Z,1.5
2022-08-05T11:50:49.979Z,1.5
2022-08-05T11:52:58.066Z,1.7
2022-08-05T11:54:55.863Z,1.7
2022-08-05T11:56:50.682Z,1.7
2022-08-05T11:58:53.361Z,1.7
2022-08-05T12:00:52.928Z,1.7
2022-08-05T12:02:50.386Z,1.8
2022-08-05T12:05:00.050Z,1.8
2022-08-05T12:06:51.868Z,1.8
2022-08-05T12:08:51.628Z,1.8
2022-08-05T12:10:52.657Z,1.6
2022-08-05T12:13:00.372Z,1.9
2022-08-05T12:14:52.215Z,1.5
2022-08-05T12:16:50.293Z,1.7
2022-08-05T12:18:53.534Z,1.7
2022-08-05T12:20:50.422Z,1.7
2022-08-05T12:22:52.088Z,1.7
2022-08-05T12:24:50.712Z,1.6
2022-08-05T12:26:49.968Z,1.5
2022-08-05T12:28:49.824Z,1.5
2022-08-05T12:30:49.812Z,1.5
2022-08-05T12:32:50.698Z,1.6
2022-08-05T12:34:50.303Z,1.6
2022-08-05T12:36:50.182Z,1.5
2022-08-05T12:38:50.229Z,1.5
2022-08-05T12:40:50.461Z,1.7
2022-08-05T12:42:49.920Z,1.5
2022-08-05T12:44:50.629Z,1.5
2022-08-05T12:46:51.086Z,1.5
2022-08-05T12:48:50.432Z,1.7
2022-08-05T12:50:51.230Z,1.7
2022-08-05T12:52:51.700Z,2.1
2022-08-05T12:54:50.096Z,2.6
2022-08-05T12:56:51.227Z,2.6
2022-08-05T12:59:02.380Z,1.6
2022-08-05T13:01:59.309Z,1.6
2022-08-05T13:02:55.541Z,1.6
2022-08-05T13:04:54.966Z,1.5
2022-08-05T13:06:52.238Z,1.5
2022-08-05T13:08:52.959Z,1.6
2022-08-05T13:10:50.997Z,1.5
2022-08-05T13:12:58.681Z,1.8
2022-08-05T13:15:05.203Z,1.8
2022-08-05T13:16:50.070Z,2.4
2022-08-05T13:18:49.862Z,1.6
2022-08-05T13:20:50.510Z,1.7
2022-08-05T13:22:50.295Z,1.8
2022-08-05T13:25:00.548Z,1.7
2022-08-05T13:26:51.005Z,1.7
2022-08-05T13:28:53.476Z,1.6
2022-08-05T13:30:53.662Z,1.7
2022-08-05T13:32:50.804Z,1.6
2022-08-05T13:34:50.197Z,1.6
2022-08-05T13:36:50.462Z,1.6
2022-08-05T13:38:52.235Z,1.6
2022-08-05T13:40:52.509Z,1.6
2022-08-05T13:42:55.869Z,1.7
2022-08-05T13:44:50.743Z,1.7
2022-08-05T13:47:02.079Z,1.6
2022-08-05T13:49:00.775Z,1.6
2022-08-05T13:50:50.142Z,1.5
2022-08-05T13:52:50.293Z,1.6
2022-08-05T13:54:53.747Z,1.6
2022-08-05T13:56:52.098Z,1.6
2022-08-05T13:58:53.915Z,1.6
2022-08-05T14:00:52.135Z,1.8
2022-08-05T14:02:51.279Z,1.8
2022-08-05T14:04:51.885Z,1.5
2022-08-05T14:07:12.281Z,1.5
2022-08-05T14:08:52.830Z,1.7
2022-08-05T14:10:50.067Z,1.8
2022-08-05T14:12:54.757Z,1.5
2022-08-05T14:14:51.571Z,1.6
2022-08-05T14:16:50.292Z,1.6
2022-08-05T14:18:51.788Z,1.5
2022-08-05T14:20:55.413Z,1.6
2022-08-05T14:22:50.589Z,1.4
2022-08-05T14:24:50.494Z,1.3
2022-08-05T14:27:15.992Z,1.3
2022-08-05T14:28:52.617Z,1.3
2022-08-05T14:30:53.644Z,1.7
2022-08-05T14:32:51.470Z,1.4
2022-08-05T14:34:51.685Z,1.4
2022-08-05T14:36:49.853Z,1.5
2022-08-05T14:38:49.867Z,1.4
2022-08-05T14:40:50.786Z,1.5
2022-08-05T14:42:49.799Z,1.5
2022-08-05T14:44:50.055Z,1.5
2022-08-05T14:46:50.353Z,1.8
2022-08-05T14:48:50.268Z,1.4
2022-08-05T14:50:49.816Z,1.6
2022-08-05T14:52:57.919Z,1.6
2022-08-05T14:54:53.521Z,1.6
2022-08-05T14:56:54.596Z,1.6
2022-08-05T14:58:53.456Z,1.8
2022-08-05T15:01:00.380Z,1.8
2022-08-05T15:02:51.267Z,1.9
2022-08-05T15:04:50.705Z,1.9
2022-08-05T15:06:50.166Z,1.7
2022-08-05T15:09:03.066Z,1.7
2022-08-05T15:10:50.956Z,1.4
2022-08-05T15:13:03.406Z,1.4
2022-08-05T15:14:50.892Z,1.7
2022-08-05T15:16:50.695Z,1.8
2022-08-05T15:18:52.685Z,1.5
2022-08-05T15:20:51.121Z,1.5
2022-08-05T15:22:55.236Z,1.6
2022-08-05T15:24:50.481Z,1.6
2022-08-05T15:26:50.559Z,1.6
2022-08-05T15:28:52.191Z,1.7
2022-08-05T15:30:53.434Z,1.7
2022-08-05T15:32:50.513Z,1.6
2022-08-05T15:34:50.555Z,1.6
2022-08-05T15:36:49.931Z,1.5
2022-08-05T15:40:42.127Z,1.6
2022-08-05T15:41:21.587Z,1.5
2022-08-05T15:43:07.977Z,1.5
2022-08-05T15:44:50.066Z,1.5
2022-08-05T15:46:52.753Z,1.6
2022-08-05T15:49:01.102Z,1.6
2022-08-05T15:50:50.999Z,2.0
2022-08-05T15:52:55.384Z,2.0
2022-08-05T15:54:50.816Z,1.7
2022-08-05T15:56:50.068Z,1.7
2022-08-05T15:58:50.318Z,1.7
2022-08-05T16:01:15.899Z,1.7
2022-08-05T16:02:50.293Z,2.0
2022-08-05T16:04:50.009Z,1.4
2022-08-05T16:06:50.382Z,1.6
2022-08-05T16:08:55.433Z,1.9
2022-08-05T16:10:50.806Z,1.9
2022-08-05T16:12:49.776Z,1.7
2022-08-05T16:14:49.872Z,1.8
2022-08-05T16:16:50.164Z,1.8
2022-08-05T16:18:53.031Z,1.8
2022-08-05T16:20:51.536Z,1.8
2022-08-05T16:22:50.580Z,1.8
2022-08-05T16:24:52.313Z,1.9
2022-08-05T16:26:49.700Z,2.1
2022-08-05T16:28:52.230Z,2.1
2022-08-05T16:30:50.502Z,2.3
2022-08-05T16:32:50.278Z,2.3
2022-08-05T16:34:51.062Z,2.1
2022-08-05T16:36:52.506Z,2.1
2022-08-05T16:38:55.544Z,2.3
2022-08-05T16:41:00.673Z,2.0
2022-08-05T16:42:50.587Z,1.7
2022-08-05T16:44:57.260Z,2.1
2022-08-05T16:46:56.397Z,2.0
2022-08-05T16:48:50.308Z,2.3
2022-08-05T16:50:50.164Z,2.3
2022-08-05T16:52:50.506Z,2.2
2022-08-05T16:54:50.170Z,1.9
2022-08-05T16:56:52.410Z,2.1
2022-08-05T16:58:50.362Z,2.1
2022-08-05T17:00:50.671Z,2.0
2022-08-05T17:02:51.504Z,2.1
2022-08-05T17:04:49.970Z,2.3
2022-08-05T17:06:53.750Z,2.4
2022-08-05T17:08:54.268Z,2.4
2022-08-05T17:10:50.643Z,2.4
2022-08-05T17:12:52.568Z,2.2
2022-08-05T17:14:50.161Z,2.4
2022-08-05T17:16:54.013Z,2.4
2022-08-05T17:18:49.822Z,2.4
2022-08-05T17:20:49.843Z,2.6
2022-08-05T17:22:55.919Z,2.3
2022-08-05T17:24:58.608Z,2.3
2022-08-05T17:26:50.827Z,2.3
2022-08-05T17:28:50.424Z,2.3
2022-08-05T17:30:52.521Z,2.5
2022-08-05T17:32:49.951Z,2.5
2022-08-05T17:34:53.007Z,2.5
2022-08-05T17:36:50.771Z,2.5
2022-08-05T17:38:49.991Z,2.3
2022-08-05T17:40:51.065Z,2.4
2022-08-05T17:42:53.686Z,2.3
2022-08-05T17:44:51.655Z,2.9
2022-08-05T17:46:50.467Z,2.9
2022-08-05T17:48:52.431Z,2.7
2022-08-05T17:50:50.454Z,2.4
2022-08-05T17:52:55.101Z,2.7
2022-08-05T17:54:50.967Z,2.8
2022-08-05T17:56:51.539Z,2.8
2022-08-05T17:58:51.427Z,2.7
2022-08-05T18:00:51.570Z,2.4
2022-08-05T18:02:50.207Z,2.6
2022-08-05T18:04:55.088Z,2.7
2022-08-05T18:06:50.261Z,2.7
2022-08-05T18:08:52.944Z,2.8
2022-08-05T18:10:49.874Z,2.8
2022-08-05T18:12:50.122Z,2.7
2022-08-05T18:14:51.234Z,2.8
2022-08-05T18:16:52.576Z,2.8
2022-08-05T18:18:50.983Z,3.1
2022-08-05T18:20:55.155Z,2.9
2022-08-05T18:22:57.294Z,2.9
2022-08-05T18:24:50.381Z,2.9
2022-08-05T18:26:50.192Z,2.9
2022-08-05T18:28:50.167Z,3.0
2022-08-05T18:30:51.560Z,3.1
2022-08-05T18:33:00.097Z,3.1
2022-08-05T18:34:49.937Z,2.7
2022-08-05T18:36:50.444Z,2.9
2022-08-05T18:38:50.155Z,3.1
2022-08-05T18:41:54.892Z,3.1
2022-08-05T18:42:52.203Z,2.8
2022-08-05T18:44:56.729Z,2.8
2022-08-05T18:46:50.075Z,2.8
2022-08-05T18:48:52.768Z,3.2
2022-08-05T18:50:52.909Z,3.0
2022-08-05T18:52:51.827Z,3.0
2022-08-05T18:54:49.763Z,3.0
2022-08-05T18:56:52.264Z,3.3
2022-08-05T18:59:00.709Z,3.1
2022-08-05T19:00:50.277Z,3.4
2022-08-05T19:02:50.897Z,3.4
2022-08-05T19:05:01.898Z,2.9
2022-08-05T19:06:49.765Z,3.1
2022-08-05T19:08:49.803Z,3.0
2022-08-05T19:10:49.664Z,3.0
2022-08-05T19:12:49.788Z,3.0
2022-08-05T19:15:02.369Z,3.0
2022-08-05T19:16:49.988Z,3.1
2022-08-05T19:18:49.895Z,3.4
2022-08-05T19:20:51.177Z,3.4
2022-08-05T19:22:50.899Z,3.5
2022-08-05T19:24:56.690Z,3.5
2022-08-05T19:26:55.857Z,3.6
2022-08-05T19:28:50.356Z,3.5
2022-08-05T19:30:50.332Z,4.0
2022-08-05T19:32:50.079Z,4.0
2022-08-05T19:34:55.839Z,4.1
2022-08-05T19:36:49.912Z,4.6
2022-08-05T19:38:49.973Z,4.8
2022-08-05T19:40:52.562Z,5.2
2022-08-05T19:43:00.989Z,5.2
2022-08-05T19:44:50.181Z,5.0
2022-08-05T19:46:50.664Z,5.0
2022-08-05T19:48:50.399Z,5.3
2022-08-05T19:50:51.374Z,5.3
2022-08-05T19:52:50.772Z,5.3
2022-08-05T19:54:49.717Z,5.4
2022-08-05T19:56:50.471Z,5.4
2022-08-05T19:58:54.494Z,5.3
2022-08-05T20:00:49.841Z,5.3
2022-08-05T20:02:50.271Z,5.3
2022-08-05T20:04:50.574Z,5.9
2022-08-05T20:06:50.191Z,5.6
2022-08-05T20:08:50.213Z,5.9
2022-08-05T20:10:51.219Z,5.9
2022-08-05T20:12:49.967Z,5.5
2022-08-05T20:14:52.834Z,5.6
2022-08-05T20:16:50.512Z,5.7
2022-08-05T20:18:55.824Z,5.9
2022-08-05T20:20:49.851Z,5.9
2022-08-05T20:22:51.344Z,5.7
2022-08-05T20:24:53.868Z,6.3
2022-08-05T20:26:50.294Z,6.1
2022-08-05T20:28:51.087Z,6.1
2022-08-05T20:30:50.631Z,6.2
2022-08-05T20:32:51.535Z,6.0
2022-08-05T20:34:50.515Z,6.3
2022-08-05T20:36:50.610Z,5.9
2022-08-05T20:38:58.139Z,5.9
2022-08-05T20:40:50.671Z,6.1
2022-08-05T20:42:49.782Z,5.9
2022-08-05T20:44:50.600Z,6.2
2022-08-05T20:46:51.915Z,6.0
2022-08-05T20:48:51.470Z,6.0
2022-08-05T20:50:51.174Z,5.3
2022-08-05T20:52:52.692Z,5.8
2022-08-05T20:55:54.522Z,5.9
2022-08-05T20:56:50.758Z,5.9
2022-08-05T20:58:52.102Z,5.9
2022-08-05T21:00:56.812Z,5.6
2022-08-05T21:02:52.308Z,5.6
2022-08-05T21:04:50.799Z,5.8
2022-08-05T21:06:53.512Z,5.8
2022-08-05T21:08:52.690Z,5.7
2022-08-05T21:10:50.693Z,5.7
2022-08-05T21:13:09.134Z,5.8
2022-08-05T21:14:49.916Z,5.3
2022-08-05T21:16:50.204Z,5.9
2022-08-05T21:18:50.193Z,5.9
2022-08-05T21:20:50.205Z,6.1
2022-08-05T21:22:50.533Z,6.3
2022-08-05T21:24:52.484Z,7.0
2022-08-05T21:26:58.929Z,7.0
2022-08-05T21:28:51.202Z,6.9
2022-08-05T21:30:50.141Z,6.9
2022-08-05T21:32:50.585Z,6.9
2022-08-05T21:35:07.085Z,7.1
2022-08-05T21:36:50.309Z,7.1
2022-08-05T21:38:50.646Z,7.3
2022-08-05T21:40:49.839Z,7.4
2022-08-05T21:42:52.775Z,7.3
2022-08-05T21:44:50.578Z,7.3
2022-08-05T21:46:51.624Z,7.9
2022-08-05T21:48:56.943Z,7.9
2022-08-05T21:50:54.676Z,8.3
2022-08-05T21:52:50.548Z,8.5
2022-08-05T21:54:55.402Z,8.5
2022-08-05T21:57:15.367Z,8.1
2022-08-05T21:58:58.131Z,7.9
2022-08-05T22:00:51.820Z,7.8
2022-08-05T22:02:50.313Z,7.9
2022-08-05T22:04:51.252Z,7.9
2022-08-05T22:06:50.796Z,8.0
2022-08-05T22:08:52.540Z,7.5
2022-08-05T22:10:50.438Z,7.7
2022-08-05T22:12:50.967Z,7.4
2022-08-05T22:14:49.846Z,7.2
2022-08-05T22:16:56.835Z,7.2
2022-08-05T22:18:51.313Z,7.0
2022-08-05T22:20:52.537Z,7.0
2022-08-05T22:22:51.018Z,6.5
2022-08-05T22:24:53.697Z,6.1
2022-08-05T22:26:50.778Z,6.1
2022-08-05T22:28:52.746Z,6.1
2022-08-05T22:30:58.549Z,6.5
2022-08-05T22:32:55.437Z,6.5
2022-08-05T22:34:50.642Z,6.0
2022-08-05T22:36:52.034Z,5.7
2022-08-05T22:38:50.204Z,6.0
2022-08-05T22:40:55.389Z,6.0
2022-08-05T22:42:58.432Z,6.0
2022-08-05T22:44:57.170Z,5.6
2022-08-05T22:46:51.517Z,5.6
2022-08-05T22:48:50.428Z,5.7
2022-08-05T22:50:56.482Z,5.5
2022-08-05T22:52:51.521Z,5.8
2022-08-05T22:54:50.580Z,5.8
2022-08-05T22:56:50.393Z,4.9
2022-08-05T22:58:55.324Z,5.6
2022-08-05T23:00:51.037Z,5.1
2022-08-05T23:02:50.585Z,5.1
2022-08-05T23:04:52.553Z,5.0
2022-08-05T23:06:50.438Z,4.9
2022-08-05T23:08:52.374Z,4.8
2022-08-05T23:10:56.184Z,4.8
2022-08-05T23:12:54.334Z,4.8
2022-08-05T23:14:50.612Z,3.7
2022-08-05T23:16:52.242Z,3.8
2022-08-05T23:18:51.575Z,3.7
2022-08-05T23:20:50.407Z,3.5
2022-08-05T23:22:56.608Z,3.5
2022-08-05T23:24:51.450Z,3.2
2022-08-05T23:26:50.437Z,3.0
2022-08-05T23:28:50.660Z,3.1
2022-08-05T23:30:54.748Z,3.1
2022-08-05T23:32:50.417Z,3.0
2022-08-05T23:34:50.994Z,3.0
2022-08-05T23:36:53.031Z,3.0
2022-08-05T23:38:52.485Z,2.9
2022-08-05T23:40:53.080Z,2.9
2022-08-05T23:42:53.873Z,2.9
2022-08-05T23:44:54.748Z,2.8
2022-08-05T23:46:50.125Z,3.2
2022-08-05T23:49:01.900Z,3.1
2022-08-05T23:50:50.252Z,3.1
2022-08-05T23:52:50.873Z,3.1
2022-08-05T23:54:51.487Z,3.3
2022-08-05T23:56:50.528Z,3.3
2022-08-05T23:58:50.617Z,3.3
